sensor_id;sensor_type;location;lat;lon;timestamp;temperature;humidity
77247;SHT35;66279;42.820;23.374;2023-02-02T00:00:49;1.04;76.30
77247;SHT35;66279;42.820;23.374;2023-02-02T00:03:15;1.01;75.72
77247;SHT35;66279;42.820;23.374;2023-02-02T00:05:48;1.05;75.74
77247;SHT35;66279;42.820;23.374;2023-02-02T00:08:17;1.11;75.96
77247;SHT35;66279;42.820;23.374;2023-02-02T00:10:44;1.05;76.62
77247;SHT35;66279;42.820;23.374;2023-02-02T00:13:10;1.01;76.39
77247;SHT35;66279;42.820;23.374;2023-02-02T00:15:36;1.03;76.89
77247;SHT35;66279;42.820;23.374;2023-02-02T00:18:02;0.99;76.54
77247;SHT35;66279;42.820;23.374;2023-02-02T00:20:27;1.00;77.14
77247;SHT35;66279;42.820;23.374;2023-02-02T00:22:54;1.16;77.43
77247;SHT35;66279;42.820;23.374;2023-02-02T00:25:19;1.41;77.05
77247;SHT35;66279;42.820;23.374;2023-02-02T00:27:45;1.69;76.89
77247;SHT35;66279;42.820;23.374;2023-02-02T00:30:11;1.86;76.33
77247;SHT35;66279;42.820;23.374;2023-02-02T00:32:36;1.93;76.33
77247;SHT35;66279;42.820;23.374;2023-02-02T00:35:02;2.09;76.34
77247;SHT35;66279;42.820;23.374;2023-02-02T00:37:27;2.17;75.78
77247;SHT35;66279;42.820;23.374;2023-02-02T00:39:53;2.21;75.76
77247;SHT35;66279;42.820;23.374;2023-02-02T00:42:19;2.20;75.99
77247;SHT35;66279;42.820;23.374;2023-02-02T00:44:44;2.14;75.87
77247;SHT35;66279;42.820;23.374;2023-02-02T00:47:28;2.14;75.93
77247;SHT35;66279;42.820;23.374;2023-02-02T00:49:53;2.09;76.09
77247;SHT35;66279;42.820;23.374;2023-02-02T00:52:19;2.06;76.30
77247;SHT35;66279;42.820;23.374;2023-02-02T00:54:44;2.06;76.26
77247;SHT35;66279;42.820;23.374;2023-02-02T00:57:12;2.03;75.84
77247;SHT35;66279;42.820;23.374;2023-02-02T00:59:39;1.96;76.20
77247;SHT35;66279;42.820;23.374;2023-02-02T01:02:04;1.82;76.59
77247;SHT35;66279;42.820;23.374;2023-02-02T01:04:30;1.68;76.87
77247;SHT35;66279;42.820;23.374;2023-02-02T01:06:55;1.54;77.13
77247;SHT35;66279;42.820;23.374;2023-02-02T01:09:21;1.45;77.40
77247;SHT35;66279;42.820;23.374;2023-02-02T01:11:47;1.42;77.43
77247;SHT35;66279;42.820;23.374;2023-02-02T01:14:12;1.17;78.36
77247;SHT35;66279;42.820;23.374;2023-02-02T01:16:38;1.11;78.73
77247;SHT35;66279;42.820;23.374;2023-02-02T01:19:03;1.17;78.56
77247;SHT35;66279;42.820;23.374;2023-02-02T01:21:29;1.14;78.55
77247;SHT35;66279;42.820;23.374;2023-02-02T01:23:54;1.14;79.44
77247;SHT35;66279;42.820;23.374;2023-02-02T01:26:20;1.16;80.21
77247;SHT35;66279;42.820;23.374;2023-02-02T01:28:46;1.07;79.91
77247;SHT35;66279;42.820;23.374;2023-02-02T01:31:14;0.99;80.05
77247;SHT35;66279;42.820;23.374;2023-02-02T01:33:40;0.84;79.96
77247;SHT35;66279;42.820;23.374;2023-02-02T01:36:10;0.66;80.75
77247;SHT35;66279;42.820;23.374;2023-02-02T01:38:36;0.62;80.16
77247;SHT35;66279;42.820;23.374;2023-02-02T01:41:01;0.56;79.84
77247;SHT35;66279;42.820;23.374;2023-02-02T01:46:14;0.29;81.09
77247;SHT35;66279;42.820;23.374;2023-02-02T01:48:42;0.04;82.03
77247;SHT35;66279;42.820;23.374;2023-02-02T01:51:11;-0.05;82.82
77247;SHT35;66279;42.820;23.374;2023-02-02T01:53:39;-0.02;82.82
77247;SHT35;66279;42.820;23.374;2023-02-02T01:56:06;0.01;82.53
77247;SHT35;66279;42.820;23.374;2023-02-02T01:58:37;0.01;82.73
77247;SHT35;66279;42.820;23.374;2023-02-02T02:01:05;0.01;82.76
77247;SHT35;66279;42.820;23.374;2023-02-02T02:03:32;0.29;82.09
77247;SHT35;66279;42.820;23.374;2023-02-02T02:06:06;0.33;82.18
77247;SHT35;66279;42.820;23.374;2023-02-02T02:08:37;0.35;81.91
77247;SHT35;66279;42.820;23.374;2023-02-02T02:11:04;0.33;81.84
77247;SHT35;66279;42.820;23.374;2023-02-02T02:13:31;0.28;81.59
77247;SHT35;66279;42.820;23.374;2023-02-02T02:22:17;0.38;81.70
77247;SHT35;66279;42.820;23.374;2023-02-02T02:26:36;0.26;81.92
77247;SHT35;66279;42.820;23.374;2023-02-02T02:29:21;0.18;82.32
77247;SHT35;66279;42.820;23.374;2023-02-02T02:32:00;0.17;81.84
77247;SHT35;66279;42.820;23.374;2023-02-02T02:34:44;0.15;82.00
77247;SHT35;66279;42.820;23.374;2023-02-02T02:37:28;0.08;81.73
77247;SHT35;66279;42.820;23.374;2023-02-02T02:40:12;-0.03;82.34
77247;SHT35;66279;42.820;23.374;2023-02-02T02:42:44;-0.10;82.60
77247;SHT35;66279;42.820;23.374;2023-02-02T02:45:11;-0.09;82.89
77247;SHT35;66279;42.820;23.374;2023-02-02T02:47:38;-0.14;82.99
77247;SHT35;66279;42.820;23.374;2023-02-02T02:50:05;-0.03;82.47
77247;SHT35;66279;42.820;23.374;2023-02-02T02:52:31;0.01;82.44
77247;SHT35;66279;42.820;23.374;2023-02-02T02:54:59;0.01;82.21
77247;SHT35;66279;42.820;23.374;2023-02-02T03:00:43;-0.03;82.07
77247;SHT35;66279;42.820;23.374;2023-02-02T03:10:34;-0.23;82.55
77247;SHT35;66279;42.820;23.374;2023-02-02T03:13:00;-0.17;82.59
77247;SHT35;66279;42.820;23.374;2023-02-02T03:15:30;-0.21;82.65
77247;SHT35;66279;42.820;23.374;2023-02-02T03:17:56;-0.24;82.53
77247;SHT35;66279;42.820;23.374;2023-02-02T03:20:22;-0.29;82.64
77247;SHT35;66279;42.820;23.374;2023-02-02T03:22:47;-0.30;82.54
77247;SHT35;66279;42.820;23.374;2023-02-02T03:25:13;-0.36;82.65
77247;SHT35;66279;42.820;23.374;2023-02-02T03:27:40;-0.41;82.51
77247;SHT35;66279;42.820;23.374;2023-02-02T03:30:08;-0.56;83.13
77247;SHT35;66279;42.820;23.374;2023-02-02T03:32:34;-0.62;83.32
77247;SHT35;66279;42.820;23.374;2023-02-02T03:35:00;-0.69;83.37
77247;SHT35;66279;42.820;23.374;2023-02-02T03:37:27;-0.69;83.95
77247;SHT35;66279;42.820;23.374;2023-02-02T03:39:52;-0.69;83.96
77247;SHT35;66279;42.820;23.374;2023-02-02T03:42:18;-0.60;83.95
77247;SHT35;66279;42.820;23.374;2023-02-02T03:44:43;-0.51;83.58
77247;SHT35;66279;42.820;23.374;2023-02-02T03:47:09;-0.42;83.20
77247;SHT35;66279;42.820;23.374;2023-02-02T03:49:34;-0.50;83.31
77247;SHT35;66279;42.820;23.374;2023-02-02T03:52:00;-0.57;83.54
77247;SHT35;66279;42.820;23.374;2023-02-02T03:54:28;-0.67;83.56
77247;SHT35;66279;42.820;23.374;2023-02-02T03:56:54;-0.72;83.73
77247;SHT35;66279;42.820;23.374;2023-02-02T03:59:19;-0.77;83.50
77247;SHT35;66279;42.820;23.374;2023-02-02T04:01:45;-0.79;83.82
77247;SHT35;66279;42.820;23.374;2023-02-02T04:04:10;-0.87;83.82
77247;SHT35;66279;42.820;23.374;2023-02-02T04:06:36;-1.00;84.19
77247;SHT35;66279;42.820;23.374;2023-02-02T04:09:02;-1.13;84.88
77247;SHT35;66279;42.820;23.374;2023-02-02T04:11:27;-1.13;84.96
77247;SHT35;66279;42.820;23.374;2023-02-02T04:13:53;-1.13;84.58
77247;SHT35;66279;42.820;23.374;2023-02-02T04:16:18;-1.26;84.58
77247;SHT35;66279;42.820;23.374;2023-02-02T04:18:44;-1.33;85.20
77247;SHT35;66279;42.820;23.374;2023-02-02T04:21:10;-1.29;85.31
77247;SHT35;66279;42.820;23.374;2023-02-02T04:23:35;-1.33;85.50
77247;SHT35;66279;42.820;23.374;2023-02-02T04:26:01;-1.39;85.56
77247;SHT35;66279;42.820;23.374;2023-02-02T04:28:27;-1.36;85.80
77247;SHT35;66279;42.820;23.374;2023-02-02T04:30:54;-1.27;85.61
77247;SHT35;66279;42.820;23.374;2023-02-02T04:33:21;-1.29;85.48
77247;SHT35;66279;42.820;23.374;2023-02-02T04:35:46;-1.33;85.46
77247;SHT35;66279;42.820;23.374;2023-02-02T04:38:12;-1.29;85.59
77247;SHT35;66279;42.820;23.374;2023-02-02T04:40:43;-1.26;85.58
77247;SHT35;66279;42.820;23.374;2023-02-02T04:43:09;-1.19;85.63
77247;SHT35;66279;42.820;23.374;2023-02-02T04:45:34;-1.16;85.42
77247;SHT35;66279;42.820;23.374;2023-02-02T04:48:00;-1.23;84.72
77247;SHT35;66279;42.820;23.374;2023-02-02T04:50:26;-1.29;84.43
77247;SHT35;66279;42.820;23.374;2023-02-02T04:52:51;-1.30;84.82
77247;SHT35;66279;42.820;23.374;2023-02-02T04:55:17;-1.36;85.35
77247;SHT35;66279;42.820;23.374;2023-02-02T04:57:42;-1.35;85.20
77247;SHT35;66279;42.820;23.374;2023-02-02T05:00:09;-1.44;85.25
77247;SHT35;66279;42.820;23.374;2023-02-02T05:02:39;-1.42;85.97
77247;SHT35;66279;42.820;23.374;2023-02-02T05:05:07;-1.39;85.87
77247;SHT35;66279;42.820;23.374;2023-02-02T05:07:33;-1.40;85.85
77247;SHT35;66279;42.820;23.374;2023-02-02T05:09:58;-1.46;85.44
77247;SHT35;66279;42.820;23.374;2023-02-02T05:12:24;-1.46;85.72
77247;SHT35;66279;42.820;23.374;2023-02-02T05:14:49;-1.48;85.74
77247;SHT35;66279;42.820;23.374;2023-02-02T05:17:15;-1.57;85.72
77247;SHT35;66279;42.820;23.374;2023-02-02T05:19:41;-1.58;85.97
77247;SHT35;66279;42.820;23.374;2023-02-02T05:22:06;-1.60;86.32
77247;SHT35;66279;42.820;23.374;2023-02-02T05:24:32;-1.54;86.48
77247;SHT35;66279;42.820;23.374;2023-02-02T05:26:58;-1.53;86.16
77247;SHT35;66279;42.820;23.374;2023-02-02T05:29:29;-1.51;86.22
77247;SHT35;66279;42.820;23.374;2023-02-02T05:31:54;-1.42;86.00
77247;SHT35;66279;42.820;23.374;2023-02-02T05:34:20;-1.43;85.82
77247;SHT35;66279;42.820;23.374;2023-02-02T05:36:46;-1.43;85.98
77247;SHT35;66279;42.820;23.374;2023-02-02T05:39:12;-1.47;85.60
77247;SHT35;66279;42.820;23.374;2023-02-02T05:41:37;-1.50;85.98
77247;SHT35;66279;42.820;23.374;2023-02-02T05:44:23;-1.54;85.56
77247;SHT35;66279;42.820;23.374;2023-02-02T05:46:49;-1.53;85.61
77247;SHT35;66279;42.820;23.374;2023-02-02T05:49:14;-1.61;85.61
77247;SHT35;66279;42.820;23.374;2023-02-02T05:51:43;-1.66;86.22
77247;SHT35;66279;42.820;23.374;2023-02-02T05:54:10;-1.68;86.59
77247;SHT35;66279;42.820;23.374;2023-02-02T05:56:36;-1.63;86.96
77247;SHT35;66279;42.820;23.374;2023-02-02T05:59:02;-1.57;86.62
77247;SHT35;66279;42.820;23.374;2023-02-02T06:01:32;-1.50;86.90
77247;SHT35;66279;42.820;23.374;2023-02-02T06:03:58;-1.46;86.55
77247;SHT35;66279;42.820;23.374;2023-02-02T06:06:23;-1.36;86.25
77247;SHT35;66279;42.820;23.374;2023-02-02T06:08:49;-1.25;86.03
77247;SHT35;66279;42.820;23.374;2023-02-02T06:11:17;-1.10;85.92
77247;SHT35;66279;42.820;23.374;2023-02-02T06:13:43;-1.05;85.50
77247;SHT35;66279;42.820;23.374;2023-02-02T06:16:09;-1.05;85.44
77247;SHT35;66279;42.820;23.374;2023-02-02T06:18:35;-1.02;85.56
77247;SHT35;66279;42.820;23.374;2023-02-02T06:21:03;-0.98;85.67
77247;SHT35;66279;42.820;23.374;2023-02-02T06:23:31;-0.93;85.91
77247;SHT35;66279;42.820;23.374;2023-02-02T06:25:57;-0.88;85.85
77247;SHT35;66279;42.820;23.374;2023-02-02T06:28:23;-0.89;86.08
77247;SHT35;66279;42.820;23.374;2023-02-02T06:30:48;-0.78;85.59
77247;SHT35;66279;42.820;23.374;2023-02-02T06:33:14;-0.72;85.32
77247;SHT35;66279;42.820;23.374;2023-02-02T06:35:39;-0.57;85.20
77247;SHT35;66279;42.820;23.374;2023-02-02T06:38:05;-0.48;85.02
77247;SHT35;66279;42.820;23.374;2023-02-02T06:40:30;-0.33;84.57
77247;SHT35;66279;42.820;23.374;2023-02-02T06:42:57;-0.21;83.94
77247;SHT35;66279;42.820;23.374;2023-02-02T06:45:23;-0.13;83.56
77247;SHT35;66279;42.820;23.374;2023-02-02T06:47:49;-0.11;83.60
77247;SHT35;66279;42.820;23.374;2023-02-02T06:50:15;-0.05;84.10
77247;SHT35;66279;42.820;23.374;2023-02-02T06:52:49;-0.11;83.95
77247;SHT35;66279;42.820;23.374;2023-02-02T06:55:16;-0.16;83.72
77247;SHT35;66279;42.820;23.374;2023-02-02T06:57:41;-0.14;83.92
77247;SHT35;66279;42.820;23.374;2023-02-02T07:00:07;-0.19;84.25
77247;SHT35;66279;42.820;23.374;2023-02-02T07:02:33;-0.16;84.84
77247;SHT35;66279;42.820;23.374;2023-02-02T07:04:59;-0.14;84.71
77247;SHT35;66279;42.820;23.374;2023-02-02T07:07:25;-0.10;84.04
77247;SHT35;66279;42.820;23.374;2023-02-02T07:09:50;-0.03;84.52
77247;SHT35;66279;42.820;23.374;2023-02-02T07:12:16;0.07;84.22
77247;SHT35;66279;42.820;23.374;2023-02-02T07:14:44;0.11;84.15
77247;SHT35;66279;42.820;23.374;2023-02-02T07:17:10;0.24;83.84
77247;SHT35;66279;42.820;23.374;2023-02-02T07:19:36;0.35;84.11
77247;SHT35;66279;42.820;23.374;2023-02-02T07:22:01;0.46;84.05
77247;SHT35;66279;42.820;23.374;2023-02-02T07:24:27;0.56;83.61
77247;SHT35;66279;42.820;23.374;2023-02-02T07:26:53;0.63;83.01
77247;SHT35;66279;42.820;23.374;2023-02-02T07:29:18;0.75;83.69
77247;SHT35;66279;42.820;23.374;2023-02-02T07:31:44;0.79;83.69
77247;SHT35;66279;42.820;23.374;2023-02-02T07:34:09;0.86;82.35
77247;SHT35;66279;42.820;23.374;2023-02-02T07:36:35;1.45;78.23
77247;SHT35;66279;42.820;23.374;2023-02-02T07:39:01;1.47;78.20
77247;SHT35;66279;42.820;23.374;2023-02-02T07:41:29;1.55;79.54
77247;SHT35;66279;42.820;23.374;2023-02-02T07:43:54;1.56;77.61
77247;SHT35;66279;42.820;23.374;2023-02-02T07:46:20;1.83;76.67
77247;SHT35;66279;42.820;23.374;2023-02-02T07:48:46;2.17;75.75
77247;SHT35;66279;42.820;23.374;2023-02-02T07:51:14;2.45;74.12
77247;SHT35;66279;42.820;23.374;2023-02-02T07:55:36;3.15;72.92
77247;SHT35;66279;42.820;23.374;2023-02-02T08:00:32;3.68;68.48
77247;SHT35;66279;42.820;23.374;2023-02-02T08:05:26;4.38;66.81
77247;SHT35;66279;42.820;23.374;2023-02-02T08:15:16;4.56;64.62
77247;SHT35;66279;42.820;23.374;2023-02-02T08:22:37;4.33;66.50
77247;SHT35;66279;42.820;23.374;2023-02-02T08:37:21;5.25;60.43
77247;SHT35;66279;42.820;23.374;2023-02-02T08:47:10;5.76;59.37
77247;SHT35;66279;42.820;23.374;2023-02-02T08:52:09;6.20;60.41
77247;SHT35;66279;42.820;23.374;2023-02-02T10:30:17;9.84;51.16
77247;SHT35;66279;42.820;23.374;2023-02-02T11:48:37;8.82;52.45
77247;SHT35;66279;42.820;23.374;2023-02-02T19:59:17;0.02;83.62
77247;SHT35;66279;42.820;23.374;2023-02-02T20:01:43;0.01;83.62
77247;SHT35;66279;42.820;23.374;2023-02-02T20:04:14;-0.06;84.21
77247;SHT35;66279;42.820;23.374;2023-02-02T20:06:39;-0.07;83.58
77247;SHT35;66279;42.820;23.374;2023-02-02T20:09:11;-0.17;84.74
77247;SHT35;66279;42.820;23.374;2023-02-02T20:11:38;-0.14;84.44
77247;SHT35;66279;42.820;23.374;2023-02-02T20:14:26;-0.17;85.04
77247;SHT35;66279;42.820;23.374;2023-02-02T20:16:59;-0.16;84.43
77247;SHT35;66279;42.820;23.374;2023-02-02T20:19:28;-0.19;83.51
77247;SHT35;66279;42.820;23.374;2023-02-02T20:21:55;-0.11;84.82
77247;SHT35;66279;42.820;23.374;2023-02-02T20:24:27;-0.10;84.75
77247;SHT35;66279;42.820;23.374;2023-02-02T20:26:56;-0.09;84.07
77247;SHT35;66279;42.820;23.374;2023-02-02T20:29:35;-0.09;83.82
77247;SHT35;66279;42.820;23.374;2023-02-02T20:32:03;-0.16;85.27
77247;SHT35;66279;42.820;23.374;2023-02-02T20:34:35;-0.14;84.78
77247;SHT35;66279;42.820;23.374;2023-02-02T20:39:46;-0.14;85.02
77247;SHT35;66279;42.820;23.374;2023-02-02T20:42:13;-0.14;84.59
77247;SHT35;66279;42.820;23.374;2023-02-02T20:44:38;-0.17;84.04
77247;SHT35;66279;42.820;23.374;2023-02-02T20:47:04;-0.24;84.25
77247;SHT35;66279;42.820;23.374;2023-02-02T20:49:32;-0.31;84.73
77247;SHT35;66279;42.820;23.374;2023-02-02T20:52:00;-0.34;84.83
77247;SHT35;66279;42.820;23.374;2023-02-02T20:54:27;-0.38;85.95
77247;SHT35;66279;42.820;23.374;2023-02-02T20:56:53;-0.38;85.99
77247;SHT35;66279;42.820;23.374;2023-02-02T20:59:19;-0.34;85.23
77247;SHT35;66279;42.820;23.374;2023-02-02T21:01:45;-0.36;84.97
77247;SHT35;66279;42.820;23.374;2023-02-02T21:04:11;-0.33;85.00
77247;SHT35;66279;42.820;23.374;2023-02-02T21:06:38;-0.31;85.41
77247;SHT35;66279;42.820;23.374;2023-02-02T21:09:05;-0.34;85.94
77247;SHT35;66279;42.820;23.374;2023-02-02T21:11:31;-0.36;85.82
77247;SHT35;66279;42.820;23.374;2023-02-02T21:13:56;-0.31;85.77
77247;SHT35;66279;42.820;23.374;2023-02-02T21:16:22;-0.31;85.72
77247;SHT35;66279;42.820;23.374;2023-02-02T21:18:48;-0.27;85.99
77247;SHT35;66279;42.820;23.374;2023-02-02T21:21:15;-0.30;85.85
77247;SHT35;66279;42.820;23.374;2023-02-02T21:23:42;-0.24;86.07
77247;SHT35;66279;42.820;23.374;2023-02-02T21:26:15;-0.24;86.25
77247;SHT35;66279;42.820;23.374;2023-02-02T21:28:41;-0.27;86.15
77247;SHT35;66279;42.820;23.374;2023-02-02T21:31:09;-0.27;86.27
77247;SHT35;66279;42.820;23.374;2023-02-02T21:33:35;-0.17;85.66
77247;SHT35;66279;42.820;23.374;2023-02-02T21:36:17;-0.20;86.41
77247;SHT35;66279;42.820;23.374;2023-02-02T21:38:47;-0.10;85.76
77247;SHT35;66279;42.820;23.374;2023-02-02T21:41:14;0.00;85.34
77247;SHT35;66279;42.820;23.374;2023-02-02T21:43:40;0.08;84.39
77247;SHT35;66279;42.820;23.374;2023-02-02T21:46:28;0.39;83.06
77247;SHT35;66279;42.820;23.374;2023-02-02T21:48:56;0.68;80.90
77247;SHT35;66279;42.820;23.374;2023-02-02T21:51:24;0.79;80.87
77247;SHT35;66279;42.820;23.374;2023-02-02T21:53:51;0.77;81.64
77247;SHT35;66279;42.820;23.374;2023-02-02T21:56:32;0.77;81.46
77247;SHT35;66279;42.820;23.374;2023-02-02T21:59:01;0.75;82.06
77247;SHT35;66279;42.820;23.374;2023-02-02T22:01:38;0.72;81.83
77247;SHT35;66279;42.820;23.374;2023-02-02T22:04:26;0.73;82.30
77247;SHT35;66279;42.820;23.374;2023-02-02T22:07:00;0.72;81.85
77247;SHT35;66279;42.820;23.374;2023-02-02T22:09:39;0.73;82.72
77247;SHT35;66279;42.820;23.374;2023-02-02T22:12:15;0.66;82.75
77247;SHT35;66279;42.820;23.374;2023-02-02T22:14:43;0.63;83.16
77247;SHT35;66279;42.820;23.374;2023-02-02T22:17:32;0.58;83.48
77247;SHT35;66279;42.820;23.374;2023-02-02T22:20:00;0.52;83.07
77247;SHT35;66279;42.820;23.374;2023-02-02T22:22:31;0.41;83.56
77247;SHT35;66279;42.820;23.374;2023-02-02T22:25:02;0.33;83.69
77247;SHT35;66279;42.820;23.374;2023-02-02T22:30:37;0.32;84.20
77247;SHT35;66279;42.820;23.374;2023-02-02T22:33:07;0.32;83.92
77247;SHT35;66279;42.820;23.374;2023-02-02T22:35:32;0.33;84.33
77247;SHT35;66279;42.820;23.374;2023-02-02T22:37:58;0.31;83.70
77247;SHT35;66279;42.820;23.374;2023-02-02T22:40:25;0.28;83.74
77247;SHT35;66279;42.820;23.374;2023-02-02T22:42:55;0.28;83.77
77247;SHT35;66279;42.820;23.374;2023-02-02T22:45:22;0.25;83.98
77247;SHT35;66279;42.820;23.374;2023-02-02T22:47:48;0.17;84.91
77247;SHT35;66279;42.820;23.374;2023-02-02T22:50:15;0.17;84.63
77247;SHT35;66279;42.820;23.374;2023-02-02T22:52:41;0.19;84.87
77247;SHT35;66279;42.820;23.374;2023-02-02T22:55:08;0.19;84.58
77247;SHT35;66279;42.820;23.374;2023-02-02T22:57:34;0.25;84.57
77247;SHT35;66279;42.820;23.374;2023-02-02T22:59:59;0.28;84.37
77247;SHT35;66279;42.820;23.374;2023-02-02T23:02:25;0.38;84.02
77247;SHT35;66279;42.820;23.374;2023-02-02T23:04:50;0.35;84.09
77247;SHT35;66279;42.820;23.374;2023-02-02T23:07:16;0.42;83.57
77247;SHT35;66279;42.820;23.374;2023-02-02T23:09:41;0.38;84.00
77247;SHT35;66279;42.820;23.374;2023-02-02T23:12:07;0.35;83.65
77247;SHT35;66279;42.820;23.374;2023-02-02T23:14:32;0.37;83.95
77247;SHT35;66279;42.820;23.374;2023-02-02T23:16:58;0.32;84.79
77247;SHT35;66279;42.820;23.374;2023-02-02T23:19:23;0.32;84.78
77247;SHT35;66279;42.820;23.374;2023-02-02T23:21:49;0.35;84.35
77247;SHT35;66279;42.820;23.374;2023-02-02T23:24:14;0.31;84.35
77247;SHT35;66279;42.820;23.374;2023-02-02T23:26:40;0.26;84.73
77247;SHT35;66279;42.820;23.374;2023-02-02T23:29:05;0.25;84.90
77247;SHT35;66279;42.820;23.374;2023-02-02T23:31:31;0.25;84.84
77247;SHT35;66279;42.820;23.374;2023-02-02T23:33:56;0.29;84.11
77247;SHT35;66279;42.820;23.374;2023-02-02T23:36:22;0.31;84.08
77247;SHT35;66279;42.820;23.374;2023-02-02T23:38:47;0.31;84.89
77247;SHT35;66279;42.820;23.374;2023-02-02T23:41:13;0.35;84.53
77247;SHT35;66279;42.820;23.374;2023-02-02T23:43:38;0.37;84.20
77247;SHT35;66279;42.820;23.374;2023-02-02T23:46:07;0.38;84.31
77247;SHT35;66279;42.820;23.374;2023-02-02T23:48:34;0.39;84.33
77247;SHT35;66279;42.820;23.374;2023-02-02T23:51:00;0.31;85.30
77247;SHT35;66279;42.820;23.374;2023-02-02T23:53:26;0.28;85.51
